createdAt,value
2018-12-11T00:00:41.709Z,37.30
2018-12-11T00:01:41.678Z,34.40
2018-12-11T00:02:41.649Z,54.40
2018-12-11T00:03:41.615Z,43.70
2018-12-11T00:04:41.583Z,41.70
2018-12-11T00:05:41.567Z,37.20
2018-12-11T00:06:41.520Z,40.50
2018-12-11T00:07:41.489Z,37.20
2018-12-11T00:08:41.456Z,37.20
2018-12-11T00:09:41.425Z,39.90
2018-12-11T00:10:41.395Z,44.00
2018-12-11T00:11:41.363Z,32.60
2018-12-11T00:12:41.333Z,39.30
2018-12-11T00:13:41.302Z,40.30
2018-12-11T00:14:41.272Z,46.00
2018-12-11T00:15:41.239Z,44.30
2018-12-11T00:16:41.204Z,46.40
2018-12-11T00:17:41.172Z,39.30
2018-12-11T00:18:41.155Z,41.10
2018-12-11T00:19:41.114Z,40.80
2018-12-11T00:20:41.095Z,43.20
2018-12-11T00:21:41.047Z,44.00
2018-12-11T00:22:41.014Z,42.40
2018-12-11T00:23:40.985Z,33.00
2018-12-11T00:24:40.953Z,36.40
2018-12-11T00:25:40.926Z,37.50
2018-12-11T00:26:40.889Z,38.10
2018-12-11T00:27:40.864Z,42.80
2018-12-11T00:28:40.828Z,41.70
2018-12-11T00:29:40.794Z,43.20
2018-12-11T00:30:40.761Z,36.00
2018-12-11T00:31:40.732Z,44.40
2018-12-11T00:32:40.702Z,47.70
2018-12-11T00:33:40.668Z,37.00
2018-12-11T00:34:40.638Z,42.90
2018-12-11T00:35:40.607Z,40.10
2018-12-11T00:36:40.576Z,47.00
2018-12-11T00:37:40.543Z,43.50
2018-12-11T00:38:40.509Z,41.40
2018-12-11T00:39:40.479Z,44.80
2018-12-11T00:40:40.447Z,50.00
2018-12-11T00:41:40.415Z,43.60
2018-12-11T00:42:40.384Z,36.60
2018-12-11T00:43:40.352Z,42.20
2018-12-11T00:44:40.321Z,43.00
2018-12-11T00:45:40.289Z,41.80
2018-12-11T00:46:40.258Z,38.60
2018-12-11T00:47:40.227Z,42.00
2018-12-11T00:48:40.198Z,35.10
2018-12-11T00:49:40.163Z,42.70
2018-12-11T00:50:40.131Z,33.80
2018-12-11T00:51:40.099Z,38.70
2018-12-11T00:52:40.068Z,43.20
2018-12-11T00:53:40.040Z,41.10
2018-12-11T00:54:40.004Z,38.40
2018-12-11T00:55:39.973Z,34.70
2018-12-11T00:56:39.942Z,45.60
2018-12-11T00:57:39.910Z,34.60
2018-12-11T00:58:39.882Z,44.30
2018-12-11T00:59:39.851Z,47.00
2018-12-11T01:00:39.816Z,32.30
2018-12-11T01:01:39.783Z,45.70
2018-12-11T01:02:39.753Z,35.70
2018-12-11T01:03:39.721Z,39.30
2018-12-11T01:04:39.691Z,49.60
2018-12-11T01:05:39.658Z,35.80
2018-12-11T01:06:39.626Z,35.00
2018-12-11T01:07:39.595Z,43.90
2018-12-11T01:08:39.563Z,35.30
2018-12-11T01:09:39.531Z,37.50
2018-12-11T01:10:40.002Z,39.70
2018-12-11T01:11:39.467Z,38.30
2018-12-11T01:12:39.436Z,38.30
2018-12-11T01:13:39.406Z,41.10
2018-12-11T01:14:39.373Z,37.80
2018-12-11T01:15:39.352Z,31.70
2018-12-11T01:16:39.312Z,35.90
2018-12-11T01:17:39.278Z,39.80
2018-12-11T01:18:39.254Z,30.80
2018-12-11T01:19:39.216Z,33.40
2018-12-11T01:20:39.188Z,39.50
2018-12-11T01:21:39.156Z,27.90
2018-12-11T01:22:39.121Z,36.90
2018-12-11T01:23:39.094Z,32.90
2018-12-11T01:24:39.059Z,45.10
2018-12-11T01:25:39.026Z,36.70
2018-12-11T01:26:38.995Z,31.00
2018-12-11T01:27:38.965Z,48.20
2018-12-11T01:28:38.933Z,29.60
2018-12-11T01:29:38.901Z,35.50
2018-12-11T01:30:38.869Z,33.70
2018-12-11T01:31:38.838Z,41.20
2018-12-11T01:32:38.806Z,38.80
2018-12-11T01:33:38.773Z,32.30
2018-12-11T01:34:38.743Z,34.90
2018-12-11T01:35:38.710Z,29.50
2018-12-11T01:36:38.680Z,36.00
2018-12-11T01:37:38.649Z,37.90
2018-12-11T01:38:38.617Z,29.60
2018-12-11T01:39:38.589Z,37.10
2018-12-11T01:40:38.553Z,42.00
2018-12-11T01:41:38.520Z,39.60
2018-12-11T01:42:38.490Z,36.70
2018-12-11T01:43:38.458Z,34.20
2018-12-11T01:44:38.428Z,35.00
2018-12-11T01:45:38.395Z,39.70
2018-12-11T01:46:38.506Z,43.00
2018-12-11T01:47:38.332Z,42.00
2018-12-11T01:48:38.302Z,37.70
2018-12-11T01:49:38.269Z,39.70
2018-12-11T01:50:38.237Z,34.10
2018-12-11T01:51:38.207Z,39.70
2018-12-11T01:52:38.177Z,33.60
2018-12-11T01:53:38.142Z,30.90
2018-12-11T01:54:38.111Z,38.00
2018-12-11T01:55:38.079Z,36.00
2018-12-11T01:56:38.060Z,31.90
2018-12-11T01:57:38.015Z,37.90
2018-12-11T01:58:37.983Z,37.20
2018-12-11T01:59:37.952Z,33.70
2018-12-11T02:00:37.919Z,34.40
2018-12-11T02:01:37.887Z,33.90
2018-12-11T02:02:37.856Z,34.50
2018-12-11T02:03:37.828Z,32.50
2018-12-11T02:04:37.794Z,33.00
2018-12-11T02:05:37.761Z,33.40
2018-12-11T02:06:37.729Z,28.90
2018-12-11T02:07:37.702Z,33.70
2018-12-11T02:08:37.665Z,38.00
2018-12-11T02:09:37.634Z,40.40
2018-12-11T02:10:37.602Z,44.30
2018-12-11T02:11:37.572Z,39.80
2018-12-11T02:12:37.539Z,31.80
2018-12-11T02:13:37.506Z,36.90
2018-12-11T02:14:37.474Z,37.30
2018-12-11T02:15:37.444Z,37.20
2018-12-11T02:16:37.412Z,38.90
2018-12-11T02:17:37.380Z,39.10
2018-12-11T02:18:37.352Z,30.20
2018-12-11T02:19:37.319Z,33.60
2018-12-11T02:20:37.285Z,36.10
2018-12-11T02:21:41.983Z,37.10
2018-12-11T02:22:37.224Z,28.70
2018-12-11T02:23:37.188Z,34.00
2018-12-11T02:24:37.156Z,40.00
2018-12-11T02:25:37.122Z,35.30
2018-12-11T02:26:37.092Z,38.70
2018-12-11T02:27:37.062Z,45.70
2018-12-11T02:28:37.030Z,39.30
2018-12-11T02:29:36.995Z,38.70
2018-12-11T02:30:36.964Z,37.40
2018-12-11T02:31:36.933Z,38.40
2018-12-11T02:32:36.899Z,43.10
2018-12-11T02:33:36.869Z,37.20
2018-12-11T02:34:36.838Z,36.30
2018-12-11T02:35:36.805Z,34.80
2018-12-11T02:36:36.772Z,39.20
2018-12-11T02:37:36.742Z,40.30
2018-12-11T02:38:36.709Z,34.40
2018-12-11T02:39:36.678Z,33.80
2018-12-11T02:40:36.645Z,38.10
2018-12-11T02:41:36.627Z,34.40
2018-12-11T02:42:36.579Z,39.60
2018-12-11T02:43:36.547Z,34.60
2018-12-11T02:44:36.517Z,38.30
2018-12-11T02:45:36.499Z,41.00
2018-12-11T02:46:36.510Z,32.40
2018-12-11T02:47:36.425Z,35.10
2018-12-11T02:48:36.391Z,42.60
2018-12-11T02:49:36.354Z,38.80
2018-12-11T02:50:36.325Z,38.40
2018-12-11T02:51:36.290Z,33.40
2018-12-11T02:52:36.259Z,40.00
2018-12-11T02:53:36.229Z,34.30
2018-12-11T02:54:36.194Z,40.30
2018-12-11T02:55:36.164Z,32.10
2018-12-11T02:56:36.133Z,37.80
2018-12-11T02:57:36.097Z,35.00
2018-12-11T02:58:36.066Z,37.40
2018-12-11T02:59:36.037Z,38.90
2018-12-11T03:00:36.003Z,33.10
2018-12-11T03:01:35.972Z,28.50
2018-12-11T03:02:35.941Z,33.40
2018-12-11T03:03:35.905Z,33.90
2018-12-11T03:04:35.876Z,41.90
2018-12-11T03:05:35.841Z,30.90
2018-12-11T03:06:35.808Z,32.00
2018-12-11T03:07:35.777Z,34.80
2018-12-11T03:08:35.744Z,30.60
2018-12-11T03:09:35.712Z,37.70
2018-12-11T03:10:35.681Z,37.90
2018-12-11T03:11:35.647Z,36.30
2018-12-11T03:12:35.617Z,38.00
2018-12-11T03:13:35.585Z,33.90
2018-12-11T03:14:35.557Z,41.90
2018-12-11T03:15:35.520Z,34.80
2018-12-11T03:16:35.487Z,35.30
2018-12-11T03:17:35.453Z,32.90
2018-12-11T03:18:35.423Z,29.30
2018-12-11T03:19:35.389Z,35.90
2018-12-11T03:20:35.360Z,37.50
2018-12-11T03:21:35.327Z,31.90
2018-12-11T03:22:35.294Z,36.20
2018-12-11T03:23:35.262Z,31.10
2018-12-11T03:24:35.234Z,37.80
2018-12-11T03:25:35.197Z,33.30
2018-12-11T03:26:35.166Z,33.30
2018-12-11T03:27:35.134Z,35.50
2018-12-11T03:28:35.142Z,32.20
2018-12-11T03:29:35.076Z,32.40
2018-12-11T03:30:35.041Z,29.40
2018-12-11T03:31:35.013Z,33.50
2018-12-11T03:32:34.973Z,31.50
2018-12-11T03:33:34.941Z,38.50
2018-12-11T03:34:34.923Z,30.60
2018-12-11T03:35:34.874Z,29.50
2018-12-11T03:36:34.844Z,31.30
2018-12-11T03:37:34.813Z,37.50
2018-12-11T03:38:34.778Z,31.30
2018-12-11T03:39:34.749Z,36.00
2018-12-11T03:40:34.713Z,33.10
2018-12-11T03:41:34.685Z,34.30
2018-12-11T03:42:34.656Z,29.00
2018-12-11T03:43:34.621Z,30.90
2018-12-11T03:44:34.588Z,36.00
2018-12-11T03:45:34.554Z,35.50
2018-12-11T03:46:34.520Z,39.50
2018-12-11T03:47:34.493Z,30.40
2018-12-11T03:48:34.455Z,31.90
2018-12-11T03:49:34.423Z,36.00
2018-12-11T03:50:34.398Z,28.40
2018-12-11T03:51:34.358Z,33.00
2018-12-11T03:52:34.329Z,32.90
2018-12-11T03:53:34.296Z,31.20
2018-12-11T03:54:34.262Z,34.50
2018-12-11T03:55:34.230Z,31.20
2018-12-11T03:56:34.196Z,31.70
2018-12-11T03:57:34.180Z,30.80
2018-12-11T03:58:34.133Z,27.80
2018-12-11T03:59:34.109Z,35.40
2018-12-11T04:00:34.069Z,32.00
2018-12-11T04:01:34.037Z,31.10
2018-12-11T04:02:34.004Z,32.50
2018-12-11T04:03:33.971Z,31.20
2018-12-11T04:04:33.942Z,26.10
2018-12-11T04:05:33.936Z,34.70
2018-12-11T04:06:33.875Z,35.30
2018-12-11T04:07:33.842Z,28.10
2018-12-11T04:08:33.809Z,31.10
2018-12-11T04:09:33.775Z,33.40
2018-12-11T04:10:33.851Z,24.40
2018-12-11T04:11:33.863Z,32.90
2018-12-11T04:12:33.686Z,29.20
2018-12-11T04:13:33.655Z,30.30
2018-12-11T04:14:33.617Z,30.20
2018-12-11T04:15:33.582Z,35.90
2018-12-11T04:16:33.550Z,33.20
2018-12-11T04:17:33.517Z,29.00
2018-12-11T04:18:33.486Z,32.50
2018-12-11T04:19:33.456Z,31.40
2018-12-11T04:20:33.421Z,31.80
2018-12-11T04:21:33.394Z,32.10
2018-12-11T04:22:33.357Z,34.60
2018-12-11T04:23:33.323Z,27.60
2018-12-11T04:24:33.296Z,33.50
2018-12-11T04:25:33.258Z,26.20
2018-12-11T04:26:33.229Z,29.30
2018-12-11T04:27:33.193Z,34.40
2018-12-11T04:28:33.166Z,37.10
2018-12-11T04:29:33.130Z,29.50
2018-12-11T04:30:33.094Z,28.10
2018-12-11T04:31:33.065Z,27.50
2018-12-11T04:32:33.031Z,31.40
2018-12-11T04:33:33.004Z,26.20
2018-12-11T04:34:32.970Z,40.10
2018-12-11T04:35:32.935Z,31.60
2018-12-11T04:36:32.904Z,31.80
2018-12-11T04:37:32.879Z,28.30
2018-12-11T04:38:32.835Z,33.60
2018-12-11T04:39:34.103Z,31.00
2018-12-11T04:40:32.772Z,37.70
2018-12-11T04:41:32.740Z,30.40
2018-12-11T04:42:32.708Z,27.40
2018-12-11T04:43:32.676Z,35.00
2018-12-11T04:44:32.645Z,35.40
2018-12-11T04:45:32.611Z,24.70
2018-12-11T04:46:32.576Z,35.10
2018-12-11T04:47:32.545Z,30.70
2018-12-11T04:48:32.511Z,27.10
2018-12-11T04:49:32.478Z,28.20
2018-12-11T04:50:32.447Z,28.10
2018-12-11T04:51:32.413Z,26.50
2018-12-11T04:52:32.381Z,25.00
2018-12-11T04:53:32.359Z,27.50
2018-12-11T04:54:32.315Z,24.80
2018-12-11T04:55:32.284Z,21.70
2018-12-11T04:56:32.250Z,32.70
2018-12-11T04:57:32.217Z,24.70
2018-12-11T04:58:32.187Z,34.50
2018-12-11T04:59:32.154Z,35.30
2018-12-11T05:00:32.122Z,26.30
2018-12-11T05:01:32.089Z,29.30
2018-12-11T05:02:32.056Z,25.30
2018-12-11T05:03:32.024Z,29.20
2018-12-11T05:04:31.990Z,31.50
2018-12-11T05:05:31.958Z,28.50
2018-12-11T05:06:31.927Z,32.90
2018-12-11T05:07:31.894Z,21.90
2018-12-11T05:08:31.861Z,27.80
2018-12-11T05:09:31.834Z,35.30
2018-12-11T05:10:31.796Z,21.20
2018-12-11T05:11:31.763Z,26.20
2018-12-11T05:12:31.732Z,23.50
2018-12-11T05:13:31.702Z,28.40
2018-12-11T05:14:31.665Z,27.70
2018-12-11T05:15:31.633Z,24.30
2018-12-11T05:16:31.600Z,23.80
2018-12-11T05:17:31.571Z,24.40
2018-12-11T05:18:31.534Z,24.90
2018-12-11T05:19:31.502Z,26.90
2018-12-11T05:20:31.473Z,27.10
2018-12-11T05:21:31.438Z,39.70
2018-12-11T05:22:31.412Z,30.50
2018-12-11T05:23:31.373Z,25.60
2018-12-11T05:24:31.344Z,30.70
2018-12-11T05:25:31.307Z,25.40
2018-12-11T05:26:31.275Z,26.20
2018-12-11T05:27:31.254Z,23.80
2018-12-11T05:28:31.209Z,31.00
2018-12-11T05:29:31.177Z,23.00
2018-12-11T05:30:31.144Z,30.10
2018-12-11T05:31:31.112Z,28.80
2018-12-11T05:32:31.091Z,23.60
2018-12-11T05:33:31.046Z,25.30
2018-12-11T05:34:31.014Z,22.90
2018-12-11T05:35:30.985Z,24.30
2018-12-11T05:36:30.948Z,28.40
2018-12-11T05:37:30.916Z,21.80
2018-12-11T05:38:30.882Z,22.10
2018-12-11T05:39:30.851Z,23.90
2018-12-11T05:40:30.821Z,31.20
2018-12-11T05:41:30.787Z,28.30
2018-12-11T05:42:30.756Z,23.10
2018-12-11T05:43:30.719Z,29.80
2018-12-11T05:44:30.688Z,19.50
2018-12-11T05:45:30.659Z,20.20
2018-12-11T05:46:30.637Z,25.70
2018-12-11T05:47:30.595Z,23.40
2018-12-11T05:48:30.611Z,22.10
2018-12-11T05:49:30.522Z,23.90
2018-12-11T05:50:30.491Z,21.70
2018-12-11T05:51:30.462Z,22.50
2018-12-11T05:52:30.426Z,26.40
2018-12-11T05:53:30.392Z,26.60
2018-12-11T05:54:30.418Z,25.60
2018-12-11T05:55:30.328Z,28.00
2018-12-11T05:56:30.297Z,29.40
2018-12-11T05:57:30.261Z,25.70
2018-12-11T05:58:30.231Z,25.20
2018-12-11T05:59:30.201Z,27.80
2018-12-11T06:00:30.167Z,24.10
2018-12-11T06:01:30.132Z,20.90
2018-12-11T06:02:30.101Z,24.70
2018-12-11T06:03:30.067Z,26.30
2018-12-11T06:04:30.033Z,23.80
2018-12-11T06:05:30.004Z,26.00
2018-12-11T06:06:29.969Z,24.60
2018-12-11T06:07:29.941Z,21.30
2018-12-11T06:08:29.908Z,26.30
2018-12-11T06:09:29.870Z,23.70
2018-12-11T06:10:29.836Z,24.00
2018-12-11T06:11:29.804Z,17.50
2018-12-11T06:12:29.772Z,17.20
2018-12-11T06:13:29.740Z,19.40
2018-12-11T06:14:29.713Z,24.50
2018-12-11T06:15:29.673Z,19.90
2018-12-11T06:16:29.645Z,21.00
2018-12-11T06:17:29.611Z,22.30
2018-12-11T06:18:29.597Z,25.30
2018-12-11T06:19:29.694Z,19.70
2018-12-11T06:20:29.509Z,21.90
2018-12-11T06:21:29.476Z,19.50
2018-12-11T06:22:29.444Z,16.30
2018-12-11T06:23:29.410Z,20.20
2018-12-11T06:24:29.379Z,19.90
2018-12-11T06:25:29.346Z,16.90
2018-12-11T06:26:29.312Z,20.70
2018-12-11T06:27:29.294Z,21.20
2018-12-11T06:28:29.250Z,26.40
2018-12-11T06:29:29.226Z,21.30
2018-12-11T06:30:29.185Z,18.20
2018-12-11T06:31:29.149Z,22.20
2018-12-11T06:32:29.117Z,22.90
2018-12-11T06:33:29.083Z,20.50
2018-12-11T06:34:29.056Z,17.50
2018-12-11T06:35:29.019Z,22.20
2018-12-11T06:36:28.985Z,16.70
2018-12-11T06:37:28.951Z,25.30
2018-12-11T06:38:28.922Z,21.00
2018-12-11T06:39:28.886Z,19.30
2018-12-11T06:40:28.855Z,22.70
2018-12-11T06:41:28.821Z,22.80
2018-12-11T06:42:28.788Z,23.70
2018-12-11T06:43:28.756Z,22.80
2018-12-11T06:44:28.725Z,16.60
2018-12-11T06:45:28.695Z,18.60
2018-12-11T06:46:28.658Z,19.70
2018-12-11T06:47:28.639Z,20.40
2018-12-11T06:48:28.594Z,23.00
2018-12-11T06:49:28.560Z,14.10
2018-12-11T06:50:28.529Z,18.70
2018-12-11T06:51:28.494Z,19.70
2018-12-11T06:52:28.466Z,20.00
2018-12-11T06:53:28.430Z,21.90
2018-12-11T06:54:28.400Z,21.00
2018-12-11T06:55:28.363Z,18.10
2018-12-11T06:56:28.330Z,22.00
2018-12-11T06:57:28.297Z,21.80
2018-12-11T06:58:28.270Z,24.60
2018-12-11T06:59:28.234Z,15.80
2018-12-11T07:00:28.207Z,20.70
2018-12-11T07:01:28.227Z,25.40
2018-12-11T07:02:28.135Z,25.00
2018-12-11T07:03:28.099Z,23.60
2018-12-11T07:04:28.068Z,18.70
2018-12-11T07:05:28.035Z,18.50
2018-12-11T07:06:28.002Z,20.90
2018-12-11T07:07:27.969Z,20.70
2018-12-11T07:08:27.935Z,20.50
2018-12-11T07:09:27.901Z,21.80
2018-12-11T07:10:27.870Z,19.00
2018-12-11T07:11:27.836Z,18.70
2018-12-11T07:12:27.807Z,18.60
2018-12-11T07:13:27.772Z,21.60
2018-12-11T07:14:27.737Z,21.90
2018-12-11T07:15:27.706Z,19.70
2018-12-11T07:16:27.673Z,17.80
2018-12-11T07:17:27.638Z,19.60
2018-12-11T07:18:27.610Z,18.00
2018-12-11T07:19:27.574Z,17.40
2018-12-11T07:20:27.540Z,25.00
2018-12-11T07:21:27.509Z,22.00
2018-12-11T07:22:27.677Z,19.50
2018-12-11T07:23:27.443Z,20.70
2018-12-11T07:24:27.410Z,20.00
2018-12-11T07:25:27.378Z,20.20
2018-12-11T07:26:27.342Z,17.90
2018-12-11T07:27:27.311Z,19.70
2018-12-11T07:28:27.277Z,25.50
2018-12-11T07:29:27.247Z,17.40
2018-12-11T07:30:27.212Z,18.50
2018-12-11T07:31:27.178Z,14.40
2018-12-11T07:32:27.147Z,18.90
2018-12-11T07:33:27.114Z,21.20
2018-12-11T07:34:27.079Z,17.90
2018-12-11T07:35:27.051Z,19.80
2018-12-11T07:36:27.019Z,15.50
2018-12-11T07:37:26.983Z,19.60
2018-12-11T07:38:26.948Z,15.70
2018-12-11T07:39:26.915Z,17.80
2018-12-11T07:40:26.884Z,19.00
2018-12-11T07:41:26.850Z,24.90
2018-12-11T07:42:26.817Z,23.60
2018-12-11T07:43:26.792Z,17.90
2018-12-11T07:44:26.755Z,21.70
2018-12-11T07:45:26.719Z,20.10
2018-12-11T07:46:26.686Z,22.20
2018-12-11T07:47:26.654Z,24.40
2018-12-11T07:48:26.623Z,20.50
2018-12-11T07:49:26.588Z,16.30
2018-12-11T07:50:26.557Z,25.80
2018-12-11T07:51:26.522Z,22.30
2018-12-11T07:52:26.495Z,21.80
2018-12-11T07:53:26.460Z,23.30
2018-12-11T07:54:26.428Z,17.10
2018-12-11T07:55:26.395Z,19.90
2018-12-11T07:56:26.360Z,18.10
2018-12-11T07:57:26.326Z,17.90
2018-12-11T07:58:26.295Z,18.50
2018-12-11T07:59:26.262Z,17.30
2018-12-11T08:00:26.232Z,25.70
2018-12-11T08:01:26.197Z,16.50
2018-12-11T08:02:26.163Z,21.60
2018-12-11T08:03:26.140Z,18.20
2018-12-11T08:04:26.099Z,19.70
2018-12-11T08:05:26.074Z,21.50
2018-12-11T08:06:26.031Z,19.60
2018-12-11T08:07:26.000Z,20.30
2018-12-11T08:08:25.967Z,16.10
2018-12-11T08:09:25.935Z,22.90
2018-12-11T08:10:25.901Z,16.40
2018-12-11T08:11:25.872Z,24.00
2018-12-11T08:12:25.839Z,14.10
2018-12-11T08:13:25.805Z,17.60
2018-12-11T08:14:25.771Z,18.20
2018-12-11T08:15:25.751Z,16.50
2018-12-11T08:16:25.712Z,13.20
2018-12-11T08:17:25.672Z,15.80
2018-12-11T08:18:25.640Z,20.60
2018-12-11T08:19:25.608Z,14.10
2018-12-11T08:20:25.575Z,18.70
2018-12-11T08:21:25.546Z,18.30
2018-12-11T08:22:25.509Z,19.00
2018-12-11T08:23:25.478Z,18.80
2018-12-11T08:24:25.445Z,19.10
2018-12-11T08:25:25.411Z,19.70
2018-12-11T08:26:25.382Z,16.40
2018-12-11T08:27:25.346Z,13.30
2018-12-11T08:28:25.313Z,17.70
2018-12-11T08:29:25.288Z,17.30
2018-12-11T08:30:25.253Z,18.20
2018-12-11T08:31:25.221Z,17.80
2018-12-11T08:32:25.187Z,16.50
2018-12-11T08:33:25.151Z,15.80
2018-12-11T08:34:25.122Z,15.80
2018-12-11T08:35:25.086Z,13.70
2018-12-11T08:36:25.058Z,11.30
2018-12-11T08:37:25.025Z,17.80
2018-12-11T08:38:24.988Z,12.70
2018-12-11T08:39:24.958Z,15.00
2018-12-11T08:40:24.924Z,19.90
2018-12-11T08:41:24.893Z,16.10
2018-12-11T08:42:24.858Z,24.00
2018-12-11T08:43:24.824Z,13.80
2018-12-11T08:44:24.793Z,14.60
2018-12-11T08:45:24.758Z,14.80
2018-12-11T08:46:24.728Z,16.90
2018-12-11T08:47:24.697Z,15.00
2018-12-11T08:48:24.664Z,20.00
2018-12-11T08:49:24.631Z,16.60
2018-12-11T08:50:24.600Z,20.30
2018-12-11T08:51:24.570Z,22.70
2018-12-11T08:52:24.534Z,17.50
2018-12-11T08:53:24.501Z,11.40
2018-12-11T08:54:24.469Z,16.20
2018-12-11T08:55:24.441Z,20.80
2018-12-11T08:56:24.407Z,16.70
2018-12-11T08:57:24.378Z,15.10
2018-12-11T08:58:24.340Z,14.00
2018-12-11T08:59:24.313Z,14.60
2018-12-11T09:00:24.276Z,13.70
2018-12-11T09:01:24.244Z,14.30
2018-12-11T09:02:24.214Z,16.90
2018-12-11T09:03:24.180Z,13.90
2018-12-11T09:04:24.149Z,15.80
2018-12-11T09:05:24.116Z,16.80
2018-12-11T09:06:24.084Z,16.70
2018-12-11T09:07:24.060Z,13.80
2018-12-11T09:08:24.019Z,11.60
2018-12-11T09:09:23.995Z,15.50
2018-12-11T09:10:23.956Z,14.80
2018-12-11T09:11:23.923Z,12.80
2018-12-11T09:12:23.894Z,15.80
2018-12-11T09:13:23.866Z,14.70
2018-12-11T09:14:23.831Z,11.60
2018-12-11T09:15:23.800Z,11.10
2018-12-11T09:16:23.762Z,13.30
2018-12-11T09:17:23.730Z,16.00
2018-12-11T09:18:23.698Z,11.40
2018-12-11T09:19:23.667Z,14.40
2018-12-11T09:20:23.635Z,14.80
2018-12-11T09:21:23.602Z,13.50
2018-12-11T09:22:23.576Z,12.90
2018-12-11T09:23:23.539Z,15.00
2018-12-11T09:24:23.506Z,9.00
2018-12-11T09:25:23.481Z,11.50
2018-12-11T09:26:23.446Z,11.00
2018-12-11T09:27:23.412Z,11.60
2018-12-11T09:28:23.384Z,17.80
2018-12-11T09:29:23.359Z,12.50
2018-12-11T09:30:23.328Z,15.60
2018-12-11T09:31:23.298Z,11.40
2018-12-11T09:32:23.265Z,9.30
2018-12-11T09:33:23.225Z,13.20
2018-12-11T09:34:23.189Z,12.70
2018-12-11T09:35:23.160Z,12.10
2018-12-11T09:36:23.128Z,14.30
2018-12-11T09:37:23.300Z,8.80
2018-12-11T09:38:23.067Z,11.40
2018-12-11T09:39:23.037Z,12.10
2018-12-11T09:40:24.608Z,12.10
2018-12-11T09:41:22.974Z,11.70
2018-12-11T09:42:27.877Z,14.90
2018-12-11T09:43:22.913Z,8.60
2018-12-11T09:44:22.883Z,8.60
2018-12-11T09:45:22.860Z,7.20
2018-12-11T09:46:22.821Z,11.10
2018-12-11T09:47:22.790Z,11.70
2018-12-11T09:48:22.761Z,13.90
2018-12-11T09:49:22.730Z,9.70
2018-12-11T09:50:22.699Z,12.50
2018-12-11T09:51:22.670Z,13.10
2018-12-11T09:52:22.640Z,10.70
2018-12-11T09:53:22.611Z,8.90
2018-12-11T09:54:22.590Z,11.00
2018-12-11T09:55:22.549Z,9.00
2018-12-11T09:56:22.537Z,10.30
2018-12-11T09:57:22.492Z,13.00
2018-12-11T09:58:22.458Z,12.60
2018-12-11T09:59:23.493Z,9.80
2018-12-11T10:00:26.531Z,10.50
2018-12-11T10:01:22.370Z,11.70
2018-12-11T10:02:22.343Z,11.10
2018-12-11T10:03:22.309Z,10.40
2018-12-11T10:04:22.291Z,12.00
2018-12-11T10:05:22.257Z,8.10
2018-12-11T10:06:22.221Z,14.60
2018-12-11T10:07:22.194Z,11.00
2018-12-11T10:08:22.164Z,11.40
2018-12-11T10:09:22.134Z,7.30
2018-12-11T10:10:22.108Z,11.20
2018-12-11T10:11:22.077Z,11.00
2018-12-11T10:12:22.048Z,8.30
2018-12-11T10:13:22.017Z,14.20
2018-12-11T10:14:21.999Z,12.80
2018-12-11T10:15:21.961Z,8.70
2018-12-11T10:16:21.934Z,17.30
2018-12-11T10:17:21.901Z,11.50
2018-12-11T10:18:21.874Z,11.30
2018-12-11T10:19:21.845Z,12.30
2018-12-11T10:20:21.817Z,13.10
2018-12-11T10:21:21.790Z,9.20
2018-12-11T10:22:21.818Z,9.90
2018-12-11T10:23:21.728Z,10.30
2018-12-11T10:24:21.699Z,9.00
2018-12-11T10:25:21.674Z,12.60
2018-12-11T10:26:21.642Z,8.80
2018-12-11T10:27:21.614Z,13.20
2018-12-11T10:28:21.584Z,8.10
2018-12-11T10:29:21.558Z,8.60
2018-12-11T10:30:21.533Z,7.50
2018-12-11T10:31:21.500Z,11.10
2018-12-11T10:32:21.471Z,8.10
2018-12-11T10:33:21.445Z,7.80
2018-12-11T10:34:21.410Z,11.50
2018-12-11T10:35:21.383Z,9.00
2018-12-11T10:36:21.354Z,14.20
2018-12-11T10:37:21.324Z,10.40
2018-12-11T10:38:21.302Z,7.70
2018-12-11T10:39:21.270Z,9.60
2018-12-11T10:40:21.240Z,9.10
2018-12-11T10:41:21.211Z,9.10
2018-12-11T10:42:21.191Z,9.90
2018-12-11T10:43:21.154Z,12.50
2018-12-11T10:44:21.125Z,10.90
2018-12-11T10:45:21.096Z,14.60
2018-12-11T10:46:21.073Z,9.40
2018-12-11T10:47:22.046Z,13.60
2018-12-11T10:48:21.016Z,11.90
2018-12-11T10:49:20.983Z,10.50
2018-12-11T10:50:20.976Z,10.10
2018-12-11T10:51:20.928Z,7.50
2018-12-11T10:52:20.901Z,10.90
2018-12-11T10:53:20.884Z,9.80
2018-12-11T10:54:20.843Z,9.20
2018-12-11T10:55:20.814Z,8.10
2018-12-11T10:56:20.786Z,7.90
2018-12-11T10:57:20.757Z,8.90
2018-12-11T10:58:20.729Z,11.90
2018-12-11T10:59:20.704Z,8.70
2018-12-11T11:00:20.672Z,11.30
2018-12-11T11:01:20.644Z,8.20
2018-12-11T11:02:20.618Z,8.00
2018-12-11T11:03:20.588Z,8.70
2018-12-11T11:04:20.561Z,10.40
2018-12-11T11:05:20.534Z,9.70
2018-12-11T11:06:20.504Z,10.50
2018-12-11T11:07:20.479Z,6.50
2018-12-11T11:08:20.452Z,6.90
2018-12-11T11:09:20.422Z,11.60
2018-12-11T11:10:20.395Z,7.60
2018-12-11T11:11:20.367Z,9.20
2018-12-11T11:12:20.341Z,7.60
2018-12-11T11:13:20.314Z,9.40
2018-12-11T11:14:20.317Z,8.20
2018-12-11T11:15:20.267Z,9.70
2018-12-11T11:16:20.231Z,11.10
2018-12-11T11:17:20.202Z,9.90
2018-12-11T11:18:20.175Z,8.40
2018-12-11T11:19:20.149Z,10.10
2018-12-11T11:20:20.121Z,9.30
2018-12-11T11:21:20.093Z,8.60
2018-12-11T11:22:20.081Z,10.40
2018-12-11T11:23:20.038Z,7.90
2018-12-11T11:24:20.009Z,8.20
2018-12-11T11:25:19.987Z,9.90
2018-12-11T11:26:19.954Z,12.50
2018-12-11T11:27:19.930Z,9.40
2018-12-11T11:28:19.907Z,9.00
2018-12-11T11:29:19.894Z,10.00
2018-12-11T11:30:19.850Z,11.60
2018-12-11T11:31:19.818Z,13.60
2018-12-11T11:32:19.786Z,11.50
2018-12-11T11:33:19.756Z,9.70
2018-12-11T11:34:19.729Z,7.50
2018-12-11T11:35:19.700Z,12.10
2018-12-11T11:36:19.671Z,9.00
2018-12-11T11:37:19.641Z,11.60
2018-12-11T11:38:19.617Z,9.20
2018-12-11T11:39:19.596Z,12.00
2018-12-11T11:40:19.556Z,12.60
2018-12-11T11:41:19.527Z,9.50
2018-12-11T11:42:19.548Z,11.50
2018-12-11T11:43:19.468Z,10.60
2018-12-11T11:44:19.441Z,11.10
2018-12-11T11:45:19.410Z,9.50
2018-12-11T11:46:19.403Z,11.20
2018-12-11T11:47:19.352Z,9.50
2018-12-11T11:48:19.327Z,10.70
2018-12-11T11:49:19.302Z,5.60
2018-12-11T11:50:19.264Z,6.50
2018-12-11T11:51:19.238Z,10.00
2018-12-11T11:52:19.206Z,10.20
2018-12-11T11:53:19.176Z,10.30
2018-12-11T11:54:19.149Z,17.70
2018-12-11T11:55:19.140Z,9.70
2018-12-11T11:56:19.090Z,12.60
2018-12-11T11:57:19.059Z,8.50
2018-12-11T11:58:19.033Z,10.20
2018-12-11T11:59:19.002Z,10.30
2018-12-11T12:00:18.973Z,10.10
2018-12-11T12:01:18.939Z,11.90
2018-12-11T12:02:18.914Z,11.40
2018-12-11T12:03:18.882Z,11.20
2018-12-11T12:04:18.859Z,8.80
2018-12-11T12:05:18.822Z,8.30
2018-12-11T12:06:18.792Z,16.30
2018-12-11T12:07:18.772Z,8.80
2018-12-11T12:08:18.732Z,6.30
2018-12-11T12:09:18.706Z,10.30
2018-12-11T12:10:18.675Z,9.00
2018-12-11T12:11:18.653Z,9.60
2018-12-11T12:12:18.615Z,10.20
2018-12-11T12:13:18.587Z,11.30
2018-12-11T12:14:18.554Z,10.30
2018-12-11T12:15:18.579Z,10.80
2018-12-11T12:16:18.496Z,9.80
2018-12-11T12:17:18.465Z,5.60
2018-12-11T12:18:18.445Z,12.10
2018-12-11T12:19:18.406Z,7.90
2018-12-11T12:20:18.376Z,10.50
2018-12-11T12:21:18.349Z,13.10
2018-12-11T12:22:18.316Z,10.50
2018-12-11T12:23:18.299Z,6.00
2018-12-11T12:24:18.260Z,9.00
2018-12-11T12:25:18.228Z,7.80
2018-12-11T12:26:18.197Z,11.30
2018-12-11T12:27:18.173Z,10.20
2018-12-11T12:28:18.137Z,7.30
2018-12-11T12:29:18.112Z,7.20
2018-12-11T12:30:18.077Z,6.50
2018-12-11T12:31:18.049Z,8.30
2018-12-11T12:32:18.016Z,7.40
2018-12-11T12:33:17.988Z,8.90
2018-12-11T12:34:17.957Z,12.20
2018-12-11T12:35:17.928Z,9.30
2018-12-11T12:36:17.897Z,10.20
2018-12-11T12:37:17.879Z,8.40
2018-12-11T12:38:17.839Z,7.30
2018-12-11T12:39:17.809Z,12.80
2018-12-11T12:40:17.791Z,10.00
2018-12-11T12:41:17.749Z,8.30
2018-12-11T12:42:17.714Z,9.90
2018-12-11T12:43:17.686Z,9.90
2018-12-11T12:44:17.655Z,10.00
2018-12-11T12:45:17.655Z,14.20
2018-12-11T12:46:17.594Z,10.00
2018-12-11T12:47:17.579Z,8.40
2018-12-11T12:48:17.535Z,8.90
2018-12-11T12:49:17.504Z,9.40
2018-12-11T12:50:17.472Z,12.40
2018-12-11T12:51:17.443Z,12.20
2018-12-11T12:52:17.414Z,9.20
2018-12-11T12:53:17.385Z,9.20
2018-12-11T12:54:17.352Z,7.90
2018-12-11T12:55:17.324Z,8.00